createdAt,value
2018-06-21T00:02:06.586Z,22.90
2018-06-21T00:04:35.135Z,22.90
2018-06-21T00:07:03.692Z,22.80
2018-06-21T00:09:32.203Z,22.80
2018-06-21T00:12:00.718Z,22.80
2018-06-21T00:14:29.230Z,22.80
2018-06-21T00:16:57.732Z,22.80
2018-06-21T00:19:26.278Z,22.70
2018-06-21T00:21:54.964Z,22.70
2018-06-21T00:24:23.527Z,22.70
2018-06-21T00:26:52.018Z,22.70
2018-06-21T00:29:20.565Z,22.60
2018-06-21T00:31:49.078Z,22.70
2018-06-21T00:34:17.718Z,22.60
2018-06-21T00:36:46.215Z,22.60
2018-06-21T00:39:14.731Z,22.60
2018-06-21T00:41:43.233Z,22.60
2018-06-21T00:44:11.745Z,22.50
2018-06-21T00:46:40.862Z,22.50
2018-06-21T00:49:09.395Z,22.50
2018-06-21T00:51:37.978Z,22.50
2018-06-21T00:54:06.522Z,22.50
2018-06-21T00:59:03.297Z,22.40
2018-06-21T01:06:28.450Z,22.40
2018-06-21T01:08:56.953Z,22.30
2018-06-21T01:11:25.475Z,22.30
2018-06-21T01:13:53.998Z,22.30
2018-06-21T01:16:22.518Z,22.30
2018-06-21T01:18:51.081Z,22.30
2018-06-21T01:21:19.608Z,22.20
2018-06-21T01:23:48.109Z,22.20
2018-06-21T01:26:16.627Z,22.20
2018-06-21T01:28:45.137Z,22.20
2018-06-21T01:31:13.659Z,22.10
2018-06-21T01:33:42.173Z,22.10
2018-06-21T01:36:10.753Z,22.10
2018-06-21T01:38:39.251Z,22.10
2018-06-21T01:41:07.783Z,22.10
2018-06-21T01:43:36.290Z,22.00
2018-06-21T01:46:04.843Z,22.00
2018-06-21T01:48:33.341Z,22.00
2018-06-21T01:51:01.862Z,22.00
2018-06-21T01:53:30.349Z,22.00
2018-06-21T01:55:58.882Z,21.90
2018-06-21T01:58:27.374Z,21.90
2018-06-21T02:00:55.919Z,21.90
2018-06-21T02:03:24.413Z,21.90
2018-06-21T02:05:53.629Z,21.90
2018-06-21T02:08:22.127Z,21.90
2018-06-21T02:10:50.746Z,21.90
2018-06-21T02:13:19.318Z,21.90
2018-06-21T02:15:47.838Z,21.80
2018-06-21T02:18:16.381Z,21.80
2018-06-21T02:20:44.921Z,21.80
2018-06-21T02:23:13.410Z,21.70
2018-06-21T02:25:41.984Z,21.70
2018-06-21T02:28:10.889Z,21.70
2018-06-21T02:30:39.420Z,21.70
2018-06-21T02:33:08.004Z,21.70
2018-06-21T02:35:36.522Z,21.60
2018-06-21T02:38:05.166Z,21.60
2018-06-21T02:40:33.764Z,21.60
2018-06-21T02:43:02.295Z,21.60
2018-06-21T02:45:30.837Z,21.60
2018-06-21T02:47:59.391Z,21.50
2018-06-21T02:50:27.915Z,21.50
2018-06-21T02:52:56.440Z,21.50
2018-06-21T02:55:24.981Z,21.50
2018-06-21T02:57:53.489Z,21.50
2018-06-21T03:00:22.039Z,21.50
2018-06-21T03:02:50.696Z,21.40
2018-06-21T03:05:19.203Z,21.40
2018-06-21T03:07:47.760Z,21.40
2018-06-21T03:10:16.263Z,21.40
2018-06-21T03:12:44.803Z,21.40
2018-06-21T03:15:13.306Z,21.40
2018-06-21T03:17:41.898Z,21.40
2018-06-21T03:20:10.406Z,21.30
2018-06-21T03:22:39.016Z,21.30
2018-06-21T03:25:07.508Z,21.30
2018-06-21T03:27:36.042Z,21.30
2018-06-21T03:30:04.571Z,21.20
2018-06-21T03:32:33.108Z,21.20
2018-06-21T03:35:01.635Z,21.20
2018-06-21T03:37:30.156Z,21.20
2018-06-21T03:39:58.655Z,21.10
2018-06-21T03:42:27.178Z,21.10
2018-06-21T03:47:23.931Z,21.10
2018-06-21T03:49:52.430Z,21.10
2018-06-21T03:52:21.069Z,21.10
2018-06-21T03:54:49.608Z,21.10
2018-06-21T03:57:18.370Z,21.00
2018-06-21T04:02:15.149Z,21.00
2018-06-21T04:04:43.642Z,21.00
2018-06-21T04:07:12.155Z,21.00
2018-06-21T04:09:40.652Z,21.00
2018-06-21T04:12:09.175Z,21.00
2018-06-21T04:14:37.673Z,21.00
2018-06-21T04:17:06.300Z,20.90
2018-06-21T04:19:34.794Z,20.90
2018-06-21T04:22:03.307Z,20.90
2018-06-21T04:24:31.808Z,20.90
2018-06-21T04:27:00.352Z,20.90
2018-06-21T04:29:28.988Z,20.90
2018-06-21T04:31:57.511Z,20.90
2018-06-21T04:34:26.121Z,20.90
2018-06-21T04:36:54.651Z,20.90
2018-06-21T04:39:23.161Z,20.80
2018-06-21T04:41:51.678Z,20.80
2018-06-21T04:44:20.377Z,20.80
2018-06-21T04:46:48.904Z,20.80
2018-06-21T04:49:17.385Z,20.80
2018-06-21T04:51:45.900Z,20.80
2018-06-21T04:54:14.431Z,20.80
2018-06-21T04:56:43.038Z,20.80
2018-06-21T04:59:11.595Z,20.70
2018-06-21T05:01:40.176Z,20.70
2018-06-21T05:04:08.818Z,20.70
2018-06-21T05:06:37.534Z,20.70
2018-06-21T05:09:09.338Z,20.70
2018-06-21T05:11:38.095Z,20.70
2018-06-21T05:14:07.015Z,20.70
2018-06-21T05:16:35.522Z,20.80
2018-06-21T05:19:04.084Z,20.80
2018-06-21T05:21:32.868Z,20.80
2018-06-21T05:24:01.390Z,20.80
2018-06-21T05:26:30.135Z,20.80
2018-06-21T05:28:59.027Z,20.80
2018-06-21T05:31:27.522Z,20.80
2018-06-21T05:33:56.289Z,20.90
2018-06-21T05:36:24.842Z,20.90
2018-06-21T05:38:53.371Z,20.90
2018-06-21T05:41:21.925Z,20.90
2018-06-21T05:43:50.530Z,20.90
2018-06-21T05:46:19.194Z,20.90
2018-06-21T05:48:47.716Z,21.00
2018-06-21T05:51:16.254Z,21.00
2018-06-21T05:53:44.771Z,21.00
2018-06-21T05:56:13.269Z,21.10
2018-06-21T05:58:41.799Z,21.10
2018-06-21T06:01:10.315Z,21.10
2018-06-21T06:03:38.843Z,21.10
2018-06-21T06:08:35.642Z,21.20
2018-06-21T06:11:06.802Z,21.20
2018-06-21T06:13:35.691Z,21.30
2018-06-21T06:16:04.187Z,21.30
2018-06-21T06:18:32.705Z,21.40
2018-06-21T06:21:02.122Z,21.40
2018-06-21T06:23:30.931Z,21.50
2018-06-21T06:25:59.442Z,21.60
2018-06-21T06:28:27.981Z,21.60
2018-06-21T06:30:56.478Z,21.60
2018-06-21T06:33:25.036Z,21.60
2018-06-21T06:35:55.494Z,21.70
2018-06-21T06:38:24.514Z,21.80
2018-06-21T06:40:53.408Z,21.80
2018-06-21T06:43:21.940Z,21.90
2018-06-21T06:45:50.478Z,21.90
2018-06-21T06:48:19.051Z,21.90
2018-06-21T06:50:47.558Z,22.00
2018-06-21T06:53:16.121Z,22.00
2018-06-21T06:55:44.625Z,22.00
2018-06-21T06:58:13.161Z,22.00
2018-06-21T07:00:41.707Z,22.40
2018-06-21T07:03:10.426Z,22.50
2018-06-21T07:05:38.951Z,22.40
2018-06-21T07:08:07.522Z,22.30
2018-06-21T07:10:36.028Z,22.30
2018-06-21T07:13:04.565Z,22.30
2018-06-21T07:15:33.124Z,22.30
2018-06-21T07:18:01.711Z,22.30
2018-06-21T07:20:30.301Z,22.30
2018-06-21T07:22:58.771Z,22.40
2018-06-21T07:25:27.290Z,22.40
2018-06-21T07:27:55.768Z,22.40
2018-06-21T07:30:24.299Z,22.40
2018-06-21T07:32:52.840Z,22.50
2018-06-21T07:35:21.515Z,22.50
2018-06-21T07:37:50.050Z,22.50
2018-06-21T07:42:46.785Z,22.60
2018-06-21T07:45:15.714Z,22.60
2018-06-21T07:47:44.241Z,22.60
2018-06-21T07:50:12.823Z,22.70
2018-06-21T07:52:41.451Z,22.70
2018-06-21T07:57:38.224Z,22.80
2018-06-21T08:00:06.805Z,22.80
2018-06-21T08:02:35.319Z,22.90
2018-06-21T08:05:04.004Z,22.90
2018-06-21T08:07:32.559Z,22.90
2018-06-21T08:10:01.112Z,23.00
2018-06-21T08:12:29.650Z,23.10
2018-06-21T08:14:58.274Z,23.10
2018-06-21T08:17:26.794Z,23.10
2018-06-21T08:19:55.317Z,23.10
2018-06-21T08:22:24.210Z,23.20
2018-06-21T08:24:52.753Z,23.20
2018-06-21T08:27:21.373Z,23.20
2018-06-21T08:29:49.913Z,23.20
2018-06-21T08:32:18.496Z,23.30
2018-06-21T08:34:47.049Z,23.30
2018-06-21T08:37:15.925Z,23.40
2018-06-21T08:39:44.455Z,23.30
2018-06-21T08:42:12.986Z,23.30
2018-06-21T08:44:41.542Z,23.30
2018-06-21T08:47:10.102Z,23.30
2018-06-21T08:49:38.655Z,23.30
2018-06-21T08:52:07.188Z,23.40
2018-06-21T08:54:35.738Z,23.40
2018-06-21T08:57:04.265Z,24.00
2018-06-21T08:59:32.782Z,23.90
2018-06-21T09:02:01.330Z,23.80
2018-06-21T09:04:29.873Z,23.70
2018-06-21T09:06:58.825Z,23.60
2018-06-21T09:09:27.491Z,23.60
2018-06-21T09:11:56.003Z,23.60
2018-06-21T09:14:24.519Z,23.60
2018-06-21T09:16:53.057Z,23.60
2018-06-21T09:19:21.632Z,23.60
2018-06-21T09:21:50.144Z,23.70
2018-06-21T09:24:18.646Z,23.70
2018-06-21T09:26:47.166Z,23.70
2018-06-21T09:29:15.705Z,23.70
2018-06-21T09:31:44.226Z,23.80
2018-06-21T09:34:12.710Z,23.80
2018-06-21T09:39:17.147Z,23.90
2018-06-21T09:41:51.126Z,24.00
2018-06-21T09:44:25.103Z,24.10
2018-06-21T09:46:58.915Z,24.10
2018-06-21T09:49:30.045Z,24.10
2018-06-21T09:52:00.115Z,24.20
2018-06-21T09:54:28.651Z,24.30
2018-06-21T09:56:57.463Z,24.30
2018-06-21T09:59:25.983Z,24.50
2018-06-21T10:01:54.506Z,24.50
2018-06-21T10:04:23.015Z,24.60
2018-06-21T10:06:51.676Z,24.50
2018-06-21T10:09:20.175Z,24.50
2018-06-21T10:11:48.902Z,24.50
2018-06-21T10:14:17.425Z,24.50
2018-06-21T10:16:46.020Z,24.50
2018-06-21T10:19:14.583Z,24.50
2018-06-21T10:24:11.286Z,25.10
2018-06-21T10:26:39.832Z,25.30
2018-06-21T10:29:08.441Z,25.50
2018-06-21T10:31:36.975Z,25.60
2018-06-21T10:34:05.501Z,25.70
2018-06-21T10:36:42.911Z,25.90
2018-06-21T10:39:12.299Z,27.30
2018-06-21T10:41:40.955Z,29.40
2018-06-21T10:44:09.484Z,30.30
2018-06-21T10:46:38.033Z,30.70
2018-06-21T10:49:06.646Z,30.90
2018-06-21T10:51:35.245Z,31.10
2018-06-21T10:54:03.990Z,31.10
2018-06-21T10:56:33.110Z,31.10
2018-06-21T10:59:01.630Z,31.10
2018-06-21T11:01:30.485Z,31.20
2018-06-21T11:03:59.076Z,31.20
2018-06-21T11:06:27.612Z,31.30
2018-06-21T11:08:56.195Z,31.30
2018-06-21T11:11:24.726Z,31.40
2018-06-21T11:13:53.257Z,31.30
2018-06-21T11:16:21.880Z,31.30
2018-06-21T11:18:50.387Z,30.10
2018-06-21T11:21:18.916Z,29.60
2018-06-21T11:23:47.424Z,30.20
2018-06-21T11:26:16.205Z,30.70
2018-06-21T11:28:44.726Z,31.00
2018-06-21T11:31:13.241Z,30.80
2018-06-21T11:33:41.782Z,30.70
2018-06-21T11:36:10.280Z,30.50
2018-06-21T11:38:38.802Z,30.50
2018-06-21T11:41:07.456Z,30.60
2018-06-21T11:43:36.712Z,30.60
2018-06-21T11:46:05.236Z,30.70
2018-06-21T11:48:33.790Z,30.70
2018-06-21T11:51:02.287Z,30.80
2018-06-21T11:53:30.807Z,30.90
2018-06-21T11:55:59.315Z,30.70
2018-06-21T11:58:27.835Z,30.60
2018-06-21T12:00:56.333Z,30.50
2018-06-21T12:03:24.906Z,30.40
2018-06-21T12:05:53.390Z,30.30
2018-06-21T12:08:21.914Z,30.30
2018-06-21T12:10:50.523Z,30.30
2018-06-21T12:13:19.048Z,30.30
2018-06-21T12:18:15.970Z,30.30
2018-06-21T12:20:44.533Z,30.30
2018-06-21T12:23:13.037Z,30.20
2018-06-21T12:25:41.551Z,30.20
2018-06-21T12:28:10.067Z,30.20
2018-06-21T12:30:38.605Z,30.20
2018-06-21T12:33:07.155Z,30.10
2018-06-21T12:35:35.673Z,30.10
2018-06-21T12:38:04.330Z,30.10
2018-06-21T12:40:32.913Z,30.10
2018-06-21T12:43:01.501Z,30.10
2018-06-21T12:45:30.027Z,30.10
2018-06-21T12:47:58.563Z,30.10
2018-06-21T12:50:27.074Z,30.10
2018-06-21T12:52:55.582Z,30.00
2018-06-21T12:55:24.097Z,30.00
2018-06-21T12:57:52.629Z,30.10
2018-06-21T13:00:21.147Z,30.20
2018-06-21T13:02:49.882Z,30.30
2018-06-21T13:05:18.436Z,30.40
2018-06-21T13:07:46.963Z,30.40
2018-06-21T13:10:27.804Z,30.40
2018-06-21T13:13:10.743Z,30.40
2018-06-21T13:15:39.818Z,30.40
2018-06-21T13:18:08.341Z,30.30
2018-06-21T13:20:36.854Z,30.20
2018-06-21T13:23:05.573Z,30.20
2018-06-21T13:25:34.079Z,30.10
2018-06-21T13:28:02.665Z,30.20
2018-06-21T13:30:31.177Z,30.20
2018-06-21T13:35:27.894Z,30.20
2018-06-21T13:37:56.458Z,30.20
2018-06-21T13:40:30.873Z,30.10
2018-06-21T13:42:59.413Z,30.00
2018-06-21T13:45:27.930Z,30.00
2018-06-21T13:47:56.453Z,29.90
2018-06-21T13:50:24.998Z,29.80
2018-06-21T13:52:53.532Z,29.80
2018-06-21T13:55:22.193Z,29.80
2018-06-21T13:57:50.981Z,29.80
2018-06-21T14:00:19.507Z,29.80
2018-06-21T14:02:48.254Z,29.70
2018-06-21T14:05:16.792Z,29.70
2018-06-21T14:07:45.374Z,29.70
2018-06-21T14:10:13.970Z,29.70
2018-06-21T14:12:42.491Z,29.80
2018-06-21T14:15:11.056Z,29.80
2018-06-21T14:17:39.559Z,29.80
2018-06-21T14:20:08.141Z,29.80
2018-06-21T14:22:36.664Z,29.80
2018-06-21T14:25:05.753Z,29.80
2018-06-21T14:27:34.253Z,29.80
2018-06-21T14:32:31.046Z,29.80
2018-06-21T14:34:59.580Z,29.70
2018-06-21T14:37:28.079Z,29.70
2018-06-21T14:39:56.593Z,29.60
2018-06-21T14:42:25.129Z,29.60
2018-06-21T14:44:53.662Z,29.60
2018-06-21T14:47:22.165Z,29.50
2018-06-21T14:49:50.708Z,29.50
2018-06-21T14:52:19.231Z,29.50
2018-06-21T14:54:47.814Z,29.40
2018-06-21T14:57:16.337Z,29.40
2018-06-21T14:59:44.857Z,29.40
2018-06-21T15:03:06.407Z,29.40
2018-06-21T15:05:37.958Z,29.30
2018-06-21T15:08:06.458Z,29.30
2018-06-21T15:10:35.018Z,29.30
2018-06-21T15:13:03.639Z,29.20
2018-06-21T15:15:32.455Z,29.20
2018-06-21T15:18:01.084Z,29.10
2018-06-21T15:20:29.614Z,29.10
2018-06-21T15:22:58.472Z,29.10
2018-06-21T15:25:27.084Z,29.10
2018-06-21T15:27:55.594Z,29.10
2018-06-21T15:30:24.108Z,29.10
2018-06-21T15:32:52.640Z,29.10
2018-06-21T15:37:49.534Z,29.10
2018-06-21T15:40:18.362Z,29.10
2018-06-21T15:42:46.874Z,29.10
2018-06-21T15:45:15.535Z,29.00
2018-06-21T15:47:44.429Z,29.00
2018-06-21T15:50:12.967Z,29.00
2018-06-21T15:52:41.475Z,28.90
2018-06-21T15:55:10.106Z,28.90
2018-06-21T15:57:38.844Z,28.80
2018-06-21T16:00:07.502Z,28.80
2018-06-21T16:02:36.027Z,28.80
2018-06-21T16:05:04.633Z,28.70
2018-06-21T16:07:33.173Z,28.70
2018-06-21T16:10:01.742Z,28.70
2018-06-21T16:12:30.255Z,28.70
2018-06-21T16:14:58.811Z,28.60
2018-06-21T16:17:27.359Z,28.60
2018-06-21T16:19:55.929Z,28.60
2018-06-21T16:22:24.433Z,28.60
2018-06-21T16:27:21.182Z,28.60
2018-06-21T16:29:49.746Z,28.60
2018-06-21T16:32:18.282Z,28.50
2018-06-21T16:34:46.810Z,28.50
2018-06-21T16:37:15.345Z,28.50
2018-06-21T16:42:12.312Z,28.50
2018-06-21T16:44:40.834Z,28.40
2018-06-21T16:47:09.394Z,28.40
2018-06-21T16:49:37.989Z,28.40
2018-06-21T16:52:06.587Z,28.30
2018-06-21T16:54:35.111Z,28.30
2018-06-21T16:59:32.597Z,28.30
2018-06-21T17:02:02.138Z,28.20
2018-06-21T17:04:30.663Z,28.20
2018-06-21T17:06:59.215Z,28.20
2018-06-21T17:09:27.858Z,28.20
2018-06-21T17:14:24.612Z,28.20
2018-06-21T17:16:53.161Z,28.20
2018-06-21T17:19:21.681Z,28.10
2018-06-21T17:21:50.225Z,28.10
2018-06-21T17:24:18.737Z,28.10
2018-06-21T17:26:47.287Z,28.10
2018-06-21T17:29:15.922Z,28.00
2018-06-21T17:31:44.499Z,28.00
2018-06-21T17:34:13.025Z,28.00
2018-06-21T17:36:42.073Z,27.90
2018-06-21T17:39:11.213Z,27.90
2018-06-21T17:41:39.754Z,27.90
2018-06-21T17:44:08.278Z,27.80
2018-06-21T17:46:37.286Z,27.80
2018-06-21T17:49:06.154Z,27.80
2018-06-21T17:51:34.733Z,27.80
2018-06-21T17:54:03.434Z,27.80
2018-06-21T17:56:31.984Z,27.80
2018-06-21T17:59:00.511Z,27.70
2018-06-21T18:01:29.054Z,27.70
2018-06-21T18:03:57.598Z,27.70
2018-06-21T18:06:26.155Z,27.70
2018-06-21T18:08:54.745Z,27.70
2018-06-21T18:11:23.712Z,27.60
2018-06-21T18:13:52.264Z,27.60
2018-06-21T18:18:50.458Z,27.50
2018-06-21T18:23:47.247Z,27.40
2018-06-21T18:26:16.007Z,27.40
2018-06-21T18:31:12.800Z,27.40
2018-06-21T18:33:41.571Z,27.40
2018-06-21T18:36:10.513Z,27.40
2018-06-21T18:41:07.907Z,27.20
2018-06-21T18:43:36.450Z,27.20
2018-06-21T18:46:05.023Z,27.20
2018-06-21T18:48:33.693Z,27.20
2018-06-21T18:53:30.431Z,27.10
2018-06-21T18:55:59.677Z,27.10
2018-06-21T18:58:28.283Z,27.10
2018-06-21T19:00:56.833Z,27.10
2018-06-21T19:03:25.404Z,27.00
2018-06-21T19:05:53.993Z,27.00
2018-06-21T19:08:28.648Z,26.90
2018-06-21T19:11:02.660Z,26.90
2018-06-21T19:13:31.326Z,26.90
2018-06-21T19:15:59.940Z,26.90
2018-06-21T19:18:29.106Z,26.90
2018-06-21T19:20:58.747Z,26.80
2018-06-21T19:23:27.385Z,26.80
2018-06-21T19:25:55.916Z,26.70
2018-06-21T19:28:25.112Z,26.70
2018-06-21T19:30:53.645Z,26.70
2018-06-21T19:33:22.195Z,26.70
2018-06-21T19:35:51.420Z,26.60
2018-06-21T19:38:20.926Z,26.60
2018-06-21T19:40:50.385Z,26.60
2018-06-21T19:43:19.220Z,26.50
2018-06-21T19:45:48.357Z,26.50
2018-06-21T19:48:17.364Z,26.50
2018-06-21T19:50:46.173Z,26.50
2018-06-21T19:53:14.841Z,26.40
2018-06-21T19:55:43.395Z,26.40
2018-06-21T19:58:11.953Z,26.40
2018-06-21T20:00:40.696Z,26.30
2018-06-21T20:03:09.276Z,26.30
2018-06-21T20:05:37.840Z,26.30
2018-06-21T20:08:06.378Z,26.30
2018-06-21T20:10:34.890Z,26.30
2018-06-21T20:13:03.462Z,26.20
2018-06-21T20:15:40.891Z,26.20
2018-06-21T20:18:09.440Z,26.20
2018-06-21T20:23:06.223Z,26.10
2018-06-21T20:25:34.752Z,26.10
2018-06-21T20:28:03.480Z,26.00
2018-06-21T20:30:32.019Z,26.00
2018-06-21T20:33:00.588Z,26.00
2018-06-21T20:35:29.209Z,26.00
2018-06-21T20:37:57.737Z,25.90
2018-06-21T20:40:26.267Z,25.90
2018-06-21T20:42:54.823Z,25.90
2018-06-21T20:45:23.610Z,25.90
2018-06-21T20:47:52.217Z,25.90
2018-06-21T20:50:20.772Z,25.80
2018-06-21T20:52:49.299Z,25.80
2018-06-21T20:55:17.836Z,25.80
2018-06-21T20:57:46.324Z,25.70
2018-06-21T21:00:16.321Z,25.70
2018-06-21T21:02:44.821Z,25.70
2018-06-21T21:05:16.406Z,25.60
2018-06-21T21:07:46.285Z,25.60
2018-06-21T21:10:16.115Z,25.50
2018-06-21T21:12:44.608Z,25.60
2018-06-21T21:15:13.918Z,25.50
2018-06-21T21:17:43.606Z,25.50
2018-06-21T21:20:12.231Z,25.50
2018-06-21T21:22:41.361Z,25.50
2018-06-21T21:25:09.890Z,25.40
2018-06-21T21:27:38.393Z,25.40
2018-06-21T21:30:08.305Z,25.40
2018-06-21T21:32:36.813Z,25.30
2018-06-21T21:35:05.456Z,25.30
2018-06-21T21:37:33.982Z,25.30
2018-06-21T21:40:06.772Z,25.20
2018-06-21T21:42:36.606Z,25.20
2018-06-21T21:45:05.514Z,25.20
2018-06-21T21:47:33.998Z,25.10
2018-06-21T21:50:02.524Z,25.10
2018-06-21T21:52:31.070Z,25.10
2018-06-21T21:54:59.579Z,25.10
2018-06-21T21:57:28.078Z,25.00
2018-06-21T21:59:56.604Z,25.00
2018-06-21T22:02:25.206Z,25.00
2018-06-21T22:04:53.723Z,24.90
2018-06-21T22:09:50.416Z,24.90
2018-06-21T22:12:19.119Z,24.90
2018-06-21T22:14:47.723Z,24.80
2018-06-21T22:17:16.241Z,24.80
2018-06-21T22:19:44.778Z,24.80
2018-06-21T22:22:13.281Z,24.80
2018-06-21T22:24:41.822Z,24.80
2018-06-21T22:27:10.315Z,24.70
2018-06-21T22:29:38.839Z,24.70
2018-06-21T22:32:07.322Z,24.70
2018-06-21T22:34:35.864Z,24.60
2018-06-21T22:37:04.367Z,24.60
2018-06-21T22:39:32.893Z,24.60
2018-06-21T22:42:01.410Z,24.60
2018-06-21T22:44:30.013Z,24.50
2018-06-21T22:46:58.519Z,24.50
2018-06-21T22:49:27.078Z,24.40
2018-06-21T22:51:55.647Z,24.40
2018-06-21T22:54:24.231Z,24.40
2018-06-21T22:56:52.751Z,24.40
2018-06-21T22:59:21.251Z,24.40
2018-06-21T23:01:49.770Z,24.40
2018-06-21T23:04:18.278Z,24.30
2018-06-21T23:06:46.798Z,24.30
2018-06-21T23:09:15.327Z,24.30
2018-06-21T23:11:43.874Z,24.20
2018-06-21T23:14:12.377Z,24.20
2018-06-21T23:16:40.891Z,24.20
2018-06-21T23:19:31.461Z,24.20
2018-06-21T23:22:00.783Z,24.10
2018-06-21T23:24:29.304Z,24.10
2018-06-21T23:26:57.881Z,24.10
2018-06-21T23:29:26.596Z,24.10
2018-06-21T23:31:55.171Z,24.00
2018-06-21T23:34:23.694Z,24.00
2018-06-21T23:36:52.220Z,24.00
2018-06-21T23:39:20.726Z,24.00
2018-06-21T23:41:49.262Z,23.90
2018-06-21T23:44:17.776Z,23.90
2018-06-21T23:46:46.286Z,23.80
2018-06-21T23:49:14.899Z,23.80
2018-06-21T23:51:43.508Z,23.80
2018-06-21T23:54:13.295Z,23.80
2018-06-21T23:56:42.926Z,23.70
2018-06-21T23:59:11.465Z,23.70
